createdAt,value
2022-10-01T00:01:11.361Z,48.27
2022-10-01T00:03:40.030Z,45.63
2022-10-01T00:06:10.443Z,46.13
2022-10-01T00:08:39.483Z,50.30
2022-10-01T00:11:12.352Z,49.90
2022-10-01T00:13:42.941Z,57.73
2022-10-01T00:16:12.957Z,65.23
2022-10-01T00:18:42.442Z,65.40
2022-10-01T00:21:12.190Z,59.10
2022-10-01T00:23:39.964Z,59.20
2022-10-01T00:26:13.568Z,63.33
2022-10-01T00:28:43.079Z,64.10
2022-10-01T00:31:11.393Z,59.70
2022-10-01T00:33:40.094Z,52.93
2022-10-01T00:36:08.748Z,59.40
2022-10-01T00:38:37.817Z,57.67
2022-10-01T00:41:06.105Z,57.10
2022-10-01T00:43:35.545Z,58.40
2022-10-01T00:46:10.756Z,63.95
2022-10-01T00:48:47.692Z,63.67
2022-10-01T00:51:15.473Z,64.13
2022-10-01T00:53:44.551Z,60.80
2022-10-01T00:56:12.132Z,59.37
2022-10-01T00:58:39.628Z,61.13
2022-10-01T01:01:08.757Z,60.73
2022-10-01T01:03:36.350Z,69.10
2022-10-01T01:06:04.773Z,69.80
2022-10-01T01:08:32.424Z,84.80
2022-10-01T01:11:08.342Z,79.40
2022-10-01T01:13:42.294Z,65.30
2022-10-01T01:16:16.916Z,71.57
2022-10-01T01:18:52.119Z,67.00
2022-10-01T01:21:24.866Z,74.17
2022-10-01T01:24:22.916Z,78.23
2022-10-01T01:27:03.409Z,80.00
2022-10-01T01:29:39.695Z,77.93
2022-10-01T01:32:15.014Z,70.43
2022-10-01T01:34:46.392Z,68.17
2022-10-01T01:37:18.348Z,74.07
2022-10-01T01:39:51.767Z,69.97
2022-10-01T01:42:24.667Z,72.63
2022-10-01T01:44:58.099Z,75.83
2022-10-01T01:47:28.601Z,81.90
2022-10-01T01:49:57.412Z,69.37
2022-10-01T01:52:25.224Z,78.33
2022-10-01T01:54:53.021Z,75.00
2022-10-01T01:57:21.668Z,71.47
2022-10-01T01:59:49.424Z,74.63
2022-10-01T02:02:23.395Z,64.60
2022-10-01T02:04:55.520Z,71.07
2022-10-01T02:07:38.628Z,70.33
2022-10-01T02:10:18.252Z,72.90
2022-10-01T02:12:56.457Z,80.10
2022-10-01T02:15:28.771Z,80.37
2022-10-01T02:18:03.226Z,77.03
2022-10-01T02:20:36.767Z,85.07
2022-10-01T02:23:10.010Z,81.20
2022-10-01T02:25:41.496Z,80.30
2022-10-01T02:28:12.812Z,81.10
2022-10-01T02:30:44.191Z,73.10
2022-10-01T02:33:16.312Z,74.07
2022-10-01T02:35:45.908Z,74.33
2022-10-01T02:38:15.169Z,64.70
2022-10-01T02:40:45.757Z,62.77
2022-10-01T02:43:18.519Z,79.03
2022-10-01T02:45:52.347Z,74.47
2022-10-01T02:48:21.280Z,68.07
2022-10-01T02:50:52.263Z,70.23
2022-10-01T02:53:24.326Z,65.33
2022-10-01T02:55:53.608Z,64.60
2022-10-01T02:58:21.050Z,72.00
2022-10-01T03:00:48.607Z,71.30
2022-10-01T03:03:16.224Z,77.40
2022-10-01T03:05:45.066Z,75.60
2022-10-01T03:08:12.640Z,78.83
2022-10-01T03:10:42.454Z,77.67
2022-10-01T03:13:13.552Z,90.20
2022-10-01T03:15:41.167Z,87.27
2022-10-01T03:18:08.736Z,102.43
2022-10-01T03:20:36.249Z,98.60
2022-10-01T03:23:05.119Z,105.73
2022-10-01T03:25:32.629Z,107.67
2022-10-01T03:28:00.871Z,123.57
2022-10-01T03:30:28.489Z,140.50
2022-10-01T03:32:55.998Z,141.53
2022-10-01T03:35:24.919Z,143.40
2022-10-01T03:37:52.954Z,130.90
2022-10-01T03:40:21.802Z,129.50
2022-10-01T03:42:50.075Z,129.83
2022-10-01T03:45:17.761Z,129.07
2022-10-01T03:47:45.260Z,120.67
2022-10-01T03:50:12.761Z,132.60
2022-10-01T03:52:41.525Z,135.63
2022-10-01T03:55:09.770Z,142.00
2022-10-01T03:57:38.720Z,142.53
2022-10-01T04:00:06.801Z,140.00
2022-10-01T04:02:34.415Z,123.93
2022-10-01T04:05:02.001Z,152.93
2022-10-01T04:07:29.851Z,144.07
2022-10-01T04:09:57.337Z,147.63
2022-10-01T04:12:24.835Z,152.03
2022-10-01T04:14:53.643Z,148.63
2022-10-01T04:17:21.127Z,151.20
2022-10-01T04:19:48.620Z,150.47
2022-10-01T04:22:16.114Z,152.90
2022-10-01T04:24:43.618Z,158.60
2022-10-01T04:27:11.136Z,167.47
2022-10-01T04:29:40.357Z,166.87
2022-10-01T04:32:09.444Z,159.77
2022-10-01T04:34:55.378Z,163.63
2022-10-01T04:37:24.183Z,168.00
2022-10-01T04:39:51.707Z,179.40
2022-10-01T04:42:19.235Z,167.37
2022-10-01T04:44:46.733Z,174.73
2022-10-01T04:47:15.692Z,188.53
2022-10-01T04:49:43.197Z,181.60
2022-10-01T04:52:10.693Z,192.63
2022-10-01T04:54:38.196Z,198.57
2022-10-01T04:57:05.694Z,211.17
2022-10-01T04:59:33.229Z,206.47
2022-10-01T05:02:00.783Z,197.10
2022-10-01T05:04:29.683Z,222.13
2022-10-01T05:06:57.144Z,219.83
2022-10-01T05:09:24.753Z,217.17
2022-10-01T05:11:52.531Z,214.70
2022-10-01T05:14:21.160Z,220.50
2022-10-01T05:16:48.725Z,223.90
2022-10-01T05:19:16.256Z,219.17
2022-10-01T05:21:45.820Z,199.03
2022-10-01T05:24:13.348Z,197.27
2022-10-01T05:26:40.843Z,205.73
2022-10-01T05:29:08.337Z,201.67
2022-10-01T05:31:36.172Z,210.83
2022-10-01T05:34:03.902Z,208.40
2022-10-01T05:36:31.397Z,201.60
2022-10-01T05:39:00.253Z,208.13
2022-10-01T05:41:28.136Z,194.10
2022-10-01T05:43:55.658Z,213.23
2022-10-01T05:46:23.188Z,182.73
2022-10-01T05:48:51.266Z,168.23
2022-10-01T05:51:19.091Z,173.30
2022-10-01T05:53:50.494Z,175.60
2022-10-01T05:56:19.548Z,176.30
2022-10-01T05:58:47.064Z,176.70
2022-10-01T06:01:14.788Z,164.27
2022-10-01T06:03:42.871Z,169.63
2022-10-01T06:06:10.435Z,161.87
2022-10-01T06:08:38.592Z,157.90
2022-10-01T06:11:06.375Z,163.40
2022-10-01T06:13:36.701Z,149.93
2022-10-01T06:16:04.483Z,153.50
2022-10-01T06:18:32.100Z,155.07
2022-10-01T06:21:00.575Z,154.53
2022-10-01T06:23:28.084Z,149.53
2022-10-01T06:25:55.607Z,141.37
2022-10-01T06:28:23.239Z,172.77
2022-10-01T06:30:52.131Z,163.43
2022-10-01T06:33:20.195Z,152.10
2022-10-01T06:35:49.083Z,161.97
2022-10-01T06:38:18.089Z,151.87
2022-10-01T06:40:45.724Z,163.03
2022-10-01T06:43:13.250Z,140.43
2022-10-01T06:45:42.860Z,138.47
2022-10-01T06:48:15.083Z,147.03
2022-10-01T06:50:43.491Z,135.27
2022-10-01T06:53:11.695Z,130.73
2022-10-01T06:55:39.488Z,131.53
2022-10-01T06:58:08.981Z,125.68
2022-10-01T07:00:39.011Z,128.30
2022-10-01T07:03:10.724Z,126.43
2022-10-01T07:05:40.413Z,116.47
2022-10-01T07:08:08.715Z,118.35
2022-10-01T07:10:37.419Z,110.30
2022-10-01T07:13:09.572Z,102.60
2022-10-01T07:15:37.825Z,112.10
2022-10-01T07:18:06.054Z,97.72
2022-10-01T07:20:35.949Z,100.75
2022-10-01T07:23:04.828Z,103.22
2022-10-01T07:25:32.542Z,92.10
2022-10-01T07:28:02.641Z,93.75
2022-10-01T07:30:30.152Z,109.55
2022-10-01T07:32:57.952Z,94.10
2022-10-01T07:35:26.147Z,96.10
2022-10-01T07:37:55.182Z,95.95
2022-10-01T07:40:24.078Z,97.05
2022-10-01T07:42:55.728Z,95.72
2022-10-01T07:45:24.294Z,109.68
2022-10-01T07:47:55.795Z,80.20
2022-10-01T07:50:24.260Z,81.80
2022-10-01T07:52:53.611Z,68.85
2022-10-01T07:55:21.674Z,61.10
2022-10-01T07:57:54.089Z,64.80
2022-10-01T08:00:22.664Z,51.05
2022-10-01T08:02:51.610Z,53.22
2022-10-01T08:05:20.410Z,43.88
2022-10-01T08:07:48.659Z,37.55
2022-10-01T08:10:18.440Z,40.25
2022-10-01T08:12:46.563Z,34.72
2022-10-01T08:15:17.357Z,42.55
2022-10-01T08:17:45.802Z,36.40
2022-10-01T08:20:14.824Z,32.35
2022-10-01T08:22:42.637Z,31.90
2022-10-01T08:25:10.958Z,25.02
2022-10-01T08:27:38.516Z,24.30
2022-10-01T08:30:07.021Z,21.55
2022-10-01T08:32:35.908Z,19.05
2022-10-01T08:35:04.983Z,18.35
2022-10-01T08:37:32.520Z,19.02
2022-10-01T08:40:00.067Z,18.90
2022-10-01T08:42:44.818Z,19.45
2022-10-01T08:45:15.859Z,19.15
2022-10-01T08:47:49.364Z,17.83
2022-10-01T08:50:37.244Z,17.27
2022-10-01T08:53:08.143Z,18.60
2022-10-01T08:55:37.599Z,18.05
2022-10-01T08:58:07.518Z,18.20
2022-10-01T09:00:39.746Z,19.58
2022-10-01T09:03:14.329Z,18.52
2022-10-01T09:05:53.223Z,17.83
2022-10-01T09:08:43.733Z,17.10
2022-10-01T09:11:21.918Z,16.73
2022-10-01T09:14:00.735Z,15.93
2022-10-01T09:16:36.441Z,15.32
2022-10-01T09:19:18.997Z,15.05
2022-10-01T09:21:57.087Z,15.73
2022-10-01T09:24:40.549Z,17.88
2022-10-01T09:27:14.580Z,21.08
2022-10-01T09:29:46.927Z,16.27
2022-10-01T09:32:17.764Z,17.73
2022-10-01T09:34:46.617Z,17.05
2022-10-01T09:37:24.469Z,18.33
2022-10-01T09:40:01.546Z,17.73
2022-10-01T09:42:30.870Z,17.77
2022-10-01T09:44:58.957Z,19.52
2022-10-01T09:47:26.708Z,21.77
2022-10-01T09:49:56.940Z,16.67
2022-10-01T09:52:29.023Z,17.02
2022-10-01T09:55:00.824Z,16.40
2022-10-01T09:57:33.607Z,18.15
2022-10-01T10:00:09.944Z,19.67
2022-10-01T10:02:45.994Z,17.73
2022-10-01T10:05:20.120Z,19.13
2022-10-01T10:07:51.452Z,16.73
2022-10-01T10:10:25.562Z,16.50
2022-10-01T10:12:57.203Z,16.70
2022-10-01T10:15:26.377Z,18.10
2022-10-01T10:17:55.634Z,16.75
2022-10-01T10:20:33.471Z,17.98
2022-10-01T10:23:08.439Z,19.15
2022-10-01T10:25:36.002Z,22.00
2022-10-01T10:28:05.085Z,19.08
2022-10-01T10:30:34.323Z,21.42
2022-10-01T10:33:08.117Z,23.00
2022-10-01T10:35:37.147Z,32.40
2022-10-01T10:38:05.233Z,19.60
2022-10-01T10:40:43.318Z,16.55
2022-10-01T10:43:19.159Z,32.47
2022-10-01T10:45:46.852Z,26.50
2022-10-01T10:48:19.994Z,25.20
2022-10-01T10:50:48.892Z,20.35
2022-10-01T10:53:21.970Z,28.60
2022-10-01T10:55:58.269Z,25.63
2022-10-01T10:58:27.697Z,30.17
2022-10-01T11:00:58.441Z,31.95
2022-10-01T11:03:29.103Z,22.55
2022-10-01T11:06:03.946Z,22.13
2022-10-01T11:08:32.438Z,31.88
2022-10-01T11:11:14.305Z,27.55
2022-10-01T11:14:00.740Z,19.80
2022-10-01T11:16:43.925Z,34.78
2022-10-01T11:19:34.667Z,33.97
2022-10-01T11:22:18.489Z,23.65
2022-10-01T11:25:04.621Z,27.65
2022-10-01T11:27:40.853Z,22.38
2022-10-01T11:30:11.843Z,26.37
2022-10-01T11:32:42.394Z,20.05
2022-10-01T11:35:49.257Z,33.70
2022-10-01T11:38:43.682Z,25.20
2022-10-01T11:41:21.467Z,27.10
2022-10-01T11:43:53.792Z,26.58
2022-10-01T11:46:33.659Z,31.10
2022-10-01T11:49:09.927Z,34.95
2022-10-01T11:51:45.157Z,36.08
2022-10-01T11:54:19.660Z,21.85
2022-10-01T11:57:08.650Z,22.17
2022-10-01T11:59:41.643Z,25.92
2022-10-01T12:02:19.063Z,31.38
2022-10-01T12:04:53.560Z,26.90
2022-10-01T12:07:26.983Z,51.03
2022-10-01T12:10:02.493Z,40.90
2022-10-01T12:12:35.164Z,27.23
2022-10-01T12:15:09.718Z,25.35
2022-10-01T12:17:43.015Z,34.20
2022-10-01T12:20:21.336Z,34.17
2022-10-01T12:22:49.772Z,24.60
2022-10-01T12:25:21.170Z,24.48
2022-10-01T12:27:59.418Z,33.13
2022-10-01T12:30:31.866Z,30.05
2022-10-01T12:33:16.957Z,30.38
2022-10-01T12:35:58.915Z,30.50
2022-10-01T12:38:40.743Z,28.10
2022-10-01T12:41:25.376Z,42.67
2022-10-01T12:44:14.020Z,28.77
2022-10-01T12:46:51.517Z,35.30
2022-10-01T12:49:27.566Z,41.60
2022-10-01T12:52:05.299Z,30.05
2022-10-01T12:54:57.456Z,33.80
2022-10-01T12:57:39.872Z,34.72
2022-10-01T13:00:12.417Z,25.20
2022-10-01T13:03:13.695Z,28.33
2022-10-01T13:05:52.610Z,30.40
2022-10-01T13:08:33.666Z,25.55
2022-10-01T13:11:07.524Z,23.02
2022-10-01T13:13:38.195Z,17.05
2022-10-01T13:16:11.660Z,11.43
2022-10-01T13:18:50.810Z,9.65
2022-10-01T13:21:29.229Z,10.40
2022-10-01T13:24:01.942Z,8.55
2022-10-01T13:26:35.144Z,7.75
2022-10-01T13:29:19.979Z,7.53
2022-10-01T13:31:57.782Z,8.40
2022-10-01T13:34:33.542Z,6.72
2022-10-01T13:37:11.524Z,8.38
2022-10-01T13:39:41.949Z,7.60
2022-10-01T13:42:20.211Z,11.55
2022-10-01T13:44:53.950Z,9.18
2022-10-01T13:47:22.394Z,12.93
2022-10-01T13:49:58.606Z,9.15
2022-10-01T13:52:26.351Z,11.07
2022-10-01T13:54:56.164Z,6.20
2022-10-01T13:57:29.949Z,6.85
2022-10-01T14:00:07.124Z,21.95
2022-10-01T14:02:37.061Z,6.85
2022-10-01T14:05:28.148Z,8.55
2022-10-01T14:08:00.023Z,8.65
2022-10-01T14:10:57.208Z,8.52
2022-10-01T14:13:43.292Z,11.90
2022-10-01T14:16:12.732Z,12.15
2022-10-01T14:18:43.623Z,8.25
2022-10-01T14:21:29.889Z,6.15
2022-10-01T14:24:05.210Z,7.82
2022-10-01T14:26:43.080Z,10.32
2022-10-01T14:29:22.979Z,19.73
2022-10-01T14:32:02.437Z,17.33
2022-10-01T14:34:48.689Z,17.38
2022-10-01T14:37:18.484Z,26.08
2022-10-01T14:39:46.582Z,23.55
2022-10-01T14:42:17.530Z,20.15
2022-10-01T14:44:46.695Z,19.95
2022-10-01T14:47:20.419Z,25.75
2022-10-01T14:49:49.199Z,27.30
2022-10-01T14:52:23.133Z,35.92
2022-10-01T14:54:54.023Z,35.45
2022-10-01T14:57:29.626Z,38.22
2022-10-01T14:59:59.595Z,41.72
2022-10-01T15:02:29.458Z,45.00
2022-10-01T15:04:58.295Z,43.03
2022-10-01T15:07:29.058Z,43.63
2022-10-01T15:10:07.129Z,40.22
2022-10-01T15:12:40.218Z,49.58
2022-10-01T15:15:18.756Z,45.47
2022-10-01T15:17:48.548Z,48.47
2022-10-01T15:20:17.584Z,50.75
2022-10-01T15:22:48.023Z,40.58
2022-10-01T15:25:20.965Z,38.70
2022-10-01T15:27:49.641Z,43.60
2022-10-01T15:30:19.250Z,38.95
2022-10-01T15:32:49.733Z,31.05
2022-10-01T15:35:20.791Z,35.42
2022-10-01T15:37:50.543Z,25.23
2022-10-01T15:40:30.070Z,27.05
2022-10-01T15:43:26.219Z,29.80
2022-10-01T15:46:10.484Z,29.55
2022-10-01T15:48:39.421Z,22.38
2022-10-01T15:51:15.927Z,15.57
2022-10-01T15:53:43.651Z,21.20
2022-10-01T15:56:14.605Z,13.55
2022-10-01T15:58:48.403Z,15.57
2022-10-01T16:01:22.147Z,13.35
2022-10-01T16:03:55.608Z,26.38
2022-10-01T16:06:26.968Z,20.30
2022-10-01T16:09:01.910Z,16.75
2022-10-01T16:11:32.676Z,11.70
2022-10-01T16:14:22.900Z,11.73
2022-10-01T16:16:51.230Z,12.57
2022-10-01T16:19:29.512Z,8.73
2022-10-01T16:22:20.738Z,8.77
2022-10-01T16:24:49.758Z,14.23
2022-10-01T16:27:19.469Z,11.60
2022-10-01T16:30:12.865Z,9.80
2022-10-01T16:32:40.784Z,11.55
2022-10-01T16:35:21.038Z,8.85
2022-10-01T16:37:50.031Z,9.48
2022-10-01T16:40:18.463Z,8.13
2022-10-01T16:42:46.721Z,9.43
2022-10-01T16:45:17.658Z,7.45
2022-10-01T16:47:45.980Z,7.60
2022-10-01T16:50:16.082Z,8.00
2022-10-01T16:52:45.004Z,10.07
2022-10-01T16:55:18.099Z,6.35
2022-10-01T16:57:45.601Z,6.90
2022-10-01T17:00:15.532Z,12.52
2022-10-01T17:02:43.758Z,7.93
2022-10-01T17:05:18.589Z,6.70
2022-10-01T17:07:47.705Z,7.35
2022-10-01T17:10:16.460Z,13.55
2022-10-01T17:12:44.589Z,9.18
2022-10-01T17:15:15.616Z,10.38
2022-10-01T17:17:43.119Z,12.50
2022-10-01T17:20:11.067Z,12.43
2022-10-01T17:22:39.191Z,28.00
2022-10-01T17:25:09.336Z,10.27
2022-10-01T17:27:36.846Z,6.60
2022-10-01T17:30:04.762Z,10.88
2022-10-01T17:32:32.781Z,8.30
2022-10-01T17:35:00.244Z,9.77
2022-10-01T17:37:27.765Z,13.32
2022-10-01T17:39:55.290Z,12.25
2022-10-01T17:42:24.173Z,11.93
2022-10-01T17:44:52.316Z,11.27
2022-10-01T17:47:19.826Z,9.32
2022-10-01T17:49:47.386Z,8.27
2022-10-01T17:52:15.108Z,7.32
2022-10-01T17:54:42.644Z,19.15
2022-10-01T17:57:10.783Z,13.13
2022-10-01T17:59:39.765Z,16.98
2022-10-01T18:02:23.901Z,4.97
2022-10-01T18:04:55.565Z,7.25
2022-10-01T18:07:24.029Z,5.75
2022-10-01T18:09:52.861Z,10.65
2022-10-01T18:12:20.508Z,12.02
2022-10-01T18:14:49.732Z,8.40
2022-10-01T18:17:17.463Z,9.55
2022-10-01T18:19:53.336Z,7.35
2022-10-01T18:22:21.694Z,7.05
2022-10-01T18:24:49.292Z,6.60
2022-10-01T18:27:16.858Z,6.68
2022-10-01T18:29:44.438Z,6.47
2022-10-01T18:32:18.886Z,9.55
2022-10-01T18:34:50.623Z,6.53
2022-10-01T18:37:31.019Z,11.98
2022-10-01T18:40:03.087Z,8.60
2022-10-01T18:42:42.660Z,8.18
2022-10-01T18:45:16.830Z,6.65
2022-10-01T18:48:04.038Z,8.77
2022-10-01T18:50:41.608Z,9.55
2022-10-01T18:53:29.968Z,8.45
2022-10-01T18:56:16.493Z,18.90
2022-10-01T18:58:57.693Z,10.18
2022-10-01T19:01:36.212Z,9.13
2022-10-01T19:04:25.379Z,11.73
2022-10-01T19:07:07.287Z,14.70
2022-10-01T19:09:45.001Z,13.93
2022-10-01T19:12:26.847Z,14.98
2022-10-01T19:15:12.596Z,21.52
2022-10-01T19:17:52.760Z,22.02
2022-10-01T19:20:45.112Z,23.55
2022-10-01T19:23:29.429Z,21.20
2022-10-01T19:26:08.747Z,32.08
2022-10-01T19:28:51.652Z,32.85
2022-10-01T19:31:25.548Z,38.20
2022-10-01T19:33:57.651Z,66.18
2022-10-01T19:36:34.340Z,50.53
2022-10-01T19:39:09.649Z,60.30
2022-10-01T19:41:43.125Z,57.38
2022-10-01T19:44:14.876Z,58.55
2022-10-01T19:46:45.301Z,50.20
2022-10-01T19:49:19.173Z,75.63
2022-10-01T19:51:56.464Z,54.33
2022-10-01T19:54:28.388Z,47.25
2022-10-01T19:57:02.320Z,58.70
2022-10-01T19:59:30.148Z,64.88
2022-10-01T20:02:03.759Z,56.05
2022-10-01T20:04:38.013Z,59.60
2022-10-01T20:07:12.716Z,53.00
2022-10-01T20:09:45.921Z,46.45
2022-10-01T20:12:25.247Z,54.22
2022-10-01T20:15:09.988Z,52.58
2022-10-01T20:17:50.914Z,65.55
2022-10-01T20:20:24.258Z,46.80
2022-10-01T20:23:07.870Z,66.97
2022-10-01T20:25:44.634Z,56.15
2022-10-01T20:28:19.907Z,57.65
2022-10-01T20:30:59.004Z,74.65
2022-10-01T20:33:35.392Z,79.43
2022-10-01T20:36:12.726Z,65.30
2022-10-01T20:38:48.538Z,57.03
2022-10-01T20:41:19.813Z,96.15
2022-10-01T20:43:50.068Z,54.33
2022-10-01T20:46:24.911Z,68.93
2022-10-01T20:48:57.295Z,66.57
2022-10-01T20:51:33.552Z,72.75
2022-10-01T20:54:07.866Z,87.13
2022-10-01T20:56:41.393Z,59.65
2022-10-01T20:59:14.635Z,80.43
2022-10-01T21:01:51.125Z,60.20
2022-10-01T21:04:24.129Z,84.63
2022-10-01T21:06:54.958Z,79.60
2022-10-01T21:09:30.777Z,74.18
2022-10-01T21:12:04.014Z,65.82
2022-10-01T21:14:37.525Z,51.05
2022-10-01T21:17:29.856Z,44.92
2022-10-01T21:20:11.468Z,46.40
2022-10-01T21:22:52.690Z,40.83
2022-10-01T21:25:31.457Z,38.35
2022-10-01T21:28:24.719Z,49.22
2022-10-01T21:31:03.559Z,40.83
2022-10-01T21:33:34.211Z,42.55
2022-10-01T21:36:07.934Z,56.72
2022-10-01T21:38:42.092Z,36.97
2022-10-01T21:41:24.089Z,35.08
2022-10-01T21:44:11.212Z,38.95
2022-10-01T21:46:42.646Z,28.88
2022-10-01T21:49:18.748Z,38.88
2022-10-01T21:51:59.964Z,24.40
2022-10-01T21:54:41.412Z,49.60
2022-10-01T21:57:23.623Z,46.05
2022-10-01T22:00:07.925Z,33.80
2022-10-01T22:02:47.425Z,47.20
2022-10-01T22:05:24.503Z,21.00
2022-10-01T22:08:01.259Z,27.75
2022-10-01T22:10:33.907Z,28.58
2022-10-01T22:13:07.542Z,29.80
2022-10-01T22:15:40.289Z,27.48
2022-10-01T22:18:13.067Z,27.98
2022-10-01T22:20:43.417Z,38.25
2022-10-01T22:23:13.755Z,32.55
2022-10-01T22:25:46.712Z,34.17
2022-10-01T22:28:19.526Z,55.88
2022-10-01T22:30:50.816Z,26.48
2022-10-01T22:33:22.863Z,29.20
2022-10-01T22:35:54.997Z,28.58
2022-10-01T22:38:26.833Z,43.55
2022-10-01T22:40:59.587Z,18.75
2022-10-01T22:43:29.320Z,27.13
2022-10-01T22:46:12.084Z,37.40
2022-10-01T22:48:51.983Z,29.35
2022-10-01T22:51:40.108Z,14.98
2022-10-01T22:54:25.115Z,30.10
2022-10-01T22:57:00.139Z,39.42
2022-10-01T22:59:38.185Z,32.13
2022-10-01T23:02:12.988Z,31.80
2022-10-01T23:04:52.798Z,28.02
2022-10-01T23:07:29.095Z,26.38
2022-10-01T23:10:05.356Z,21.73
2022-10-01T23:12:41.854Z,29.23
2022-10-01T23:15:33.628Z,13.93
2022-10-01T23:18:11.677Z,26.90
2022-10-01T23:20:46.924Z,25.48
2022-10-01T23:23:28.343Z,15.70
2022-10-01T23:26:13.997Z,30.83
2022-10-01T23:28:55.065Z,30.40
2022-10-01T23:31:32.727Z,16.42
2022-10-01T23:34:11.179Z,41.83
2022-10-01T23:36:47.273Z,24.83
2022-10-01T23:39:33.471Z,14.25
2022-10-01T23:42:09.680Z,22.88
2022-10-01T23:44:42.860Z,26.02
2022-10-01T23:47:19.073Z,18.65
2022-10-01T23:49:52.847Z,22.55
2022-10-01T23:52:27.151Z,18.15
2022-10-01T23:55:18.959Z,22.25
2022-10-01T23:57:49.160Z,18.75
